createdAt,value
2017-01-22T00:00:20.883Z,18.42
2017-01-22T00:00:48.923Z,18.37
2017-01-22T00:01:17.681Z,18.45
2017-01-22T00:01:47.228Z,18.48
2017-01-22T00:02:16.098Z,18.36
2017-01-22T00:03:22.488Z,18.29
2017-01-22T00:03:51.252Z,18.33
2017-01-22T00:04:19.040Z,18.36
2017-01-22T00:04:48.644Z,18.42
2017-01-22T00:05:17.530Z,18.41
2017-01-22T00:05:46.396Z,18.3
2017-01-22T00:06:15.148Z,18.25
2017-01-22T00:06:43.122Z,18.26
2017-01-22T00:07:11.998Z,18.3
2017-01-22T00:07:40.768Z,18.3
2017-01-22T00:08:09.678Z,18.26
2017-01-22T00:08:37.692Z,18.32
2017-01-22T00:09:05.682Z,18.32
2017-01-22T00:09:33.765Z,18.42
2017-01-22T00:10:01.827Z,18.36
2017-01-22T00:10:30.668Z,18.41
2017-01-22T00:10:58.754Z,18.37
2017-01-22T00:11:26.821Z,18.44
2017-01-22T00:11:54.911Z,18.41
2017-01-22T00:12:23.058Z,18.41
2017-01-22T00:12:51.926Z,18.36
2017-01-22T00:13:19.712Z,18.35
2017-01-22T00:13:47.706Z,18.29
2017-01-22T00:14:15.683Z,18.37
2017-01-22T00:14:43.647Z,18.39
2017-01-22T00:15:11.551Z,18.32
2017-01-22T00:15:40.334Z,18.37
2017-01-22T00:16:08.478Z,18.35
2017-01-22T00:16:36.521Z,18.41
2017-01-22T00:17:04.510Z,18.37
2017-01-22T00:17:33.357Z,18.29
2017-01-22T00:18:01.253Z,18.29
2017-01-22T00:18:30.012Z,18.36
2017-01-22T00:18:58.984Z,18.32
2017-01-22T00:19:27.830Z,18.33
2017-01-22T00:19:55.628Z,18.32
2017-01-22T00:20:23.613Z,18.35
2017-01-22T00:20:52.454Z,18.35
2017-01-22T00:21:20.492Z,18.29
2017-01-22T00:21:48.388Z,18.32
2017-01-22T00:22:16.374Z,18.37
2017-01-22T00:22:45.272Z,18.3
2017-01-22T00:23:14.134Z,18.37
2017-01-22T00:23:42.104Z,18.37
2017-01-22T00:24:10.086Z,18.3
2017-01-22T00:24:39.632Z,18.27
2017-01-22T00:25:09.063Z,18.3
2017-01-22T00:25:37.964Z,18.27
2017-01-22T00:26:05.922Z,18.29
2017-01-22T00:26:34.672Z,18.33
2017-01-22T00:27:04.276Z,18.33
2017-01-22T00:27:33.066Z,18.39
2017-01-22T00:28:01.956Z,18.36
2017-01-22T00:28:30.712Z,18.35
2017-01-22T00:28:59.484Z,18.35
2017-01-22T00:29:28.254Z,18.26
2017-01-22T00:29:56.338Z,18.3
2017-01-22T00:30:25.246Z,18.3
2017-01-22T00:30:53.267Z,18.32
2017-01-22T00:31:22.908Z,18.25
2017-01-22T00:31:50.785Z,18.25
2017-01-22T00:32:18.759Z,18.23
2017-01-22T00:32:47.626Z,18.25
2017-01-22T00:33:15.571Z,18.29
2017-01-22T00:33:43.645Z,18.25
2017-01-22T00:34:11.723Z,18.21
2017-01-22T00:34:39.841Z,18.35
2017-01-22T00:35:08.644Z,18.18
2017-01-22T00:35:36.719Z,18.23
2017-01-22T00:36:04.809Z,18.32
2017-01-22T00:36:32.713Z,18.23
2017-01-22T00:37:00.696Z,18.21
2017-01-22T00:37:28.647Z,18.3
2017-01-22T00:37:56.713Z,18.26
2017-01-22T00:38:25.541Z,18.32
2017-01-22T00:38:53.622Z,18.29
2017-01-22T00:39:22.436Z,18.26
2017-01-22T00:39:51.216Z,18.27
2017-01-22T00:40:20.114Z,18.27
2017-01-22T00:40:48.089Z,18.25
2017-01-22T00:41:16.181Z,18.27
2017-01-22T00:41:44.174Z,18.3
2017-01-22T00:42:50.507Z,18.32
2017-01-22T00:43:19.254Z,18.29
2017-01-22T00:43:48.107Z,18.2
2017-01-22T00:44:16.935Z,18.18
2017-01-22T00:44:45.836Z,18.32
2017-01-22T00:45:13.915Z,18.25
2017-01-22T00:45:42.765Z,18.25
2017-01-22T00:46:11.528Z,18.3
2017-01-22T00:46:39.439Z,18.26
2017-01-22T00:47:07.532Z,18.18
2017-01-22T00:47:35.657Z,18.25
2017-01-22T00:48:03.769Z,18.27
2017-01-22T00:48:32.443Z,18.26
2017-01-22T00:49:00.679Z,18.25
2017-01-22T00:49:29.422Z,18.27
2017-01-22T00:49:57.477Z,18.25
2017-01-22T00:50:25.463Z,18.25
2017-01-22T00:50:54.302Z,18.27
2017-01-22T00:51:23.058Z,18.3
2017-01-22T00:51:51.187Z,18.3
2017-01-22T00:52:19.202Z,18.3
2017-01-22T00:52:47.963Z,18.36
2017-01-22T00:53:15.868Z,18.26
2017-01-22T00:53:43.940Z,18.3
2017-01-22T00:54:12.768Z,18.23
2017-01-22T00:54:40.680Z,18.35
2017-01-22T00:55:09.387Z,18.32
2017-01-22T00:55:38.160Z,18.3
2017-01-22T00:56:06.250Z,18.27
2017-01-22T00:56:35.108Z,18.29
2017-01-22T00:57:03.085Z,18.33
2017-01-22T00:57:31.146Z,18.27
2017-01-22T00:57:59.992Z,18.25
2017-01-22T00:58:27.934Z,18.23
2017-01-22T00:58:55.987Z,18.29
2017-01-22T00:59:23.967Z,18.15
2017-01-22T00:59:52.032Z,18.27
2017-01-22T01:00:19.999Z,18.2
2017-01-22T01:00:48.731Z,18.23
2017-01-22T01:01:16.644Z,18.26
2017-01-22T01:01:44.538Z,18.26
2017-01-22T01:02:12.574Z,18.23
2017-01-22T01:02:41.333Z,18.29
2017-01-22T01:03:10.002Z,18.23
2017-01-22T01:03:38.775Z,18.26
2017-01-22T01:04:06.990Z,18.23
2017-01-22T01:04:35.756Z,18.25
2017-01-22T01:05:04.634Z,18.27
2017-01-22T01:05:32.580Z,18.2
2017-01-22T01:06:02.197Z,18.23
2017-01-22T01:06:31.022Z,18.15
2017-01-22T01:06:59.131Z,18.25
2017-01-22T01:07:27.164Z,18.2
2017-01-22T01:07:55.235Z,18.21
2017-01-22T01:08:23.321Z,18.26
2017-01-22T01:08:51.234Z,18.12
2017-01-22T01:09:19.223Z,18.15
2017-01-22T01:09:48.115Z,18.21
2017-01-22T01:10:16.809Z,18.17
2017-01-22T01:10:45.585Z,18.05
2017-01-22T01:11:14.421Z,18.1
2017-01-22T01:11:43.274Z,18.08
2017-01-22T01:12:11.357Z,18.08
2017-01-22T01:12:40.173Z,18.14
2017-01-22T01:13:08.178Z,18.08
2017-01-22T01:13:36.862Z,18.05
2017-01-22T01:14:04.983Z,18
2017-01-22T01:14:33.014Z,18.07
2017-01-22T01:15:01.082Z,18.12
2017-01-22T01:15:29.177Z,18.05
2017-01-22T01:15:57.081Z,18.02
2017-01-22T01:16:25.148Z,18.02
2017-01-22T01:16:53.965Z,18.05
2017-01-22T01:17:21.849Z,17.97
2017-01-22T01:17:49.806Z,18
2017-01-22T01:18:17.604Z,17.99
2017-01-22T01:18:46.454Z,18.07
2017-01-22T01:19:15.340Z,18.02
2017-01-22T01:19:43.470Z,18.05
2017-01-22T01:20:12.322Z,18.03
2017-01-22T01:20:40.405Z,18.07
2017-01-22T01:21:08.313Z,18.03
2017-01-22T01:22:14.643Z,18
2017-01-22T01:22:42.533Z,18.02
2017-01-22T01:23:10.597Z,17.96
2017-01-22T01:23:38.555Z,17.96
2017-01-22T01:24:06.560Z,17.92
2017-01-22T01:24:34.548Z,17.96
2017-01-22T01:25:03.392Z,17.92
2017-01-22T01:25:31.373Z,18.03
2017-01-22T01:26:00.060Z,18.05
2017-01-22T01:26:27.977Z,17.89
2017-01-22T01:26:56.107Z,17.93
2017-01-22T01:27:24.977Z,17.93
2017-01-22T01:27:53.826Z,17.95
2017-01-22T01:28:21.811Z,17.95
2017-01-22T01:28:50.657Z,17.96
2017-01-22T01:29:18.617Z,17.96
2017-01-22T01:29:46.602Z,17.95
2017-01-22T01:30:14.569Z,17.95
2017-01-22T01:30:42.474Z,17.92
2017-01-22T01:31:10.506Z,17.96
2017-01-22T01:31:38.347Z,17.96
2017-01-22T01:32:07.869Z,17.89
2017-01-22T01:32:35.958Z,17.89
2017-01-22T01:33:03.938Z,17.97
2017-01-22T01:33:32.763Z,17.93
2017-01-22T01:34:01.627Z,17.97
2017-01-22T01:34:29.798Z,17.9
2017-01-22T01:34:58.570Z,17.97
2017-01-22T01:35:26.567Z,17.92
2017-01-22T01:35:54.551Z,17.89
2017-01-22T01:36:22.529Z,17.95
2017-01-22T01:36:50.514Z,17.93
2017-01-22T01:37:19.180Z,17.89
2017-01-22T01:37:48.072Z,17.9
2017-01-22T01:38:16.126Z,18
2017-01-22T01:38:44.203Z,17.9
2017-01-22T01:39:12.085Z,18
2017-01-22T01:39:40.149Z,17.87
2017-01-22T01:40:08.190Z,17.95
2017-01-22T01:40:36.084Z,17.81
2017-01-22T01:41:04.062Z,17.72
2017-01-22T01:41:32.964Z,17.81
2017-01-22T01:42:02.526Z,17.82
2017-01-22T01:42:30.500Z,17.79
2017-01-22T01:42:59.359Z,17.82
2017-01-22T01:43:27.356Z,17.72
2017-01-22T01:43:55.312Z,17.78
2017-01-22T01:44:23.353Z,17.77
2017-01-22T01:44:52.091Z,17.75
2017-01-22T01:45:20.834Z,17.77
2017-01-22T01:45:48.880Z,17.77
2017-01-22T01:46:16.995Z,17.81
2017-01-22T01:46:44.933Z,17.75
2017-01-22T01:47:13.003Z,17.82
2017-01-22T01:47:42.548Z,17.87
2017-01-22T01:48:11.322Z,17.82
2017-01-22T01:48:40.187Z,17.92
2017-01-22T01:49:08.128Z,17.87
2017-01-22T01:49:37.282Z,17.77
2017-01-22T01:50:06.063Z,17.77
2017-01-22T01:50:35.585Z,17.77
2017-01-22T01:51:03.556Z,17.84
2017-01-22T01:51:31.552Z,17.82
2017-01-22T01:52:00.283Z,17.87
2017-01-22T01:52:29.153Z,17.74
2017-01-22T01:52:56.958Z,17.74
2017-01-22T01:53:25.070Z,17.72
2017-01-22T01:53:53.105Z,17.77
2017-01-22T01:54:21.172Z,17.75
2017-01-22T01:54:49.961Z,17.79
2017-01-22T01:55:18.100Z,17.84
2017-01-22T01:55:46.853Z,17.72
2017-01-22T01:56:15.400Z,17.77
2017-01-22T01:56:43.375Z,17.82
2017-01-22T01:57:11.329Z,17.74
2017-01-22T01:57:40.172Z,17.77
2017-01-22T01:58:08.153Z,17.74
2017-01-22T01:58:36.968Z,17.79
2017-01-22T01:59:05.681Z,17.81
2017-01-22T01:59:34.535Z,17.72
2017-01-22T02:00:04.025Z,17.79
2017-01-22T02:00:32.022Z,17.75
2017-01-22T02:01:39.135Z,17.7
2017-01-22T02:02:07.115Z,17.78
2017-01-22T02:02:35.091Z,17.72
2017-01-22T02:03:02.951Z,17.77
2017-01-22T02:03:30.967Z,17.82
2017-01-22T02:04:00.505Z,17.75
2017-01-22T02:04:28.725Z,17.68
2017-01-22T02:04:57.471Z,17.71
2017-01-22T02:05:25.473Z,17.75
2017-01-22T02:05:54.154Z,17.75
2017-01-22T02:06:22.960Z,17.79
2017-01-22T02:06:50.973Z,17.78
2017-01-22T02:07:18.962Z,17.78
2017-01-22T02:07:47.042Z,17.75
2017-01-22T02:08:15.019Z,17.87
2017-01-22T02:08:43.860Z,17.75
2017-01-22T02:09:12.718Z,17.72
2017-01-22T02:09:40.779Z,17.72
2017-01-22T02:10:08.673Z,17.72
2017-01-22T02:10:37.494Z,17.78
2017-01-22T02:11:05.405Z,17.75
2017-01-22T02:11:33.466Z,17.78
2017-01-22T02:12:02.343Z,17.72
2017-01-22T02:12:30.240Z,17.77
2017-01-22T02:12:58.380Z,17.7
2017-01-22T02:13:26.377Z,17.68
2017-01-22T02:13:54.315Z,17.72
2017-01-22T02:14:23.080Z,17.7
2017-01-22T02:14:51.177Z,17.68
2017-01-22T02:15:19.251Z,17.71
2017-01-22T02:15:47.325Z,17.72
2017-01-22T02:16:15.401Z,17.7
2017-01-22T02:16:43.374Z,17.77
2017-01-22T02:17:11.496Z,17.72
2017-01-22T02:17:40.255Z,17.75
2017-01-22T02:18:08.050Z,17.66
2017-01-22T02:18:36.889Z,17.75
2017-01-22T02:19:05.635Z,17.64
2017-01-22T02:19:34.607Z,17.7
2017-01-22T02:20:02.419Z,17.68
2017-01-22T02:20:30.498Z,17.63
2017-01-22T02:20:59.403Z,17.63
2017-01-22T02:21:28.257Z,17.59
2017-01-22T02:21:56.219Z,17.55
2017-01-22T02:22:24.118Z,17.71
2017-01-22T02:22:52.104Z,17.58
2017-01-22T02:23:20.075Z,17.63
2017-01-22T02:23:48.995Z,17.59
2017-01-22T02:24:17.826Z,17.56
2017-01-22T02:24:46.658Z,17.58
2017-01-22T02:25:14.436Z,17.56
2017-01-22T02:25:44.018Z,17.63
2017-01-22T02:26:12.141Z,17.62
2017-01-22T02:26:40.124Z,17.71
2017-01-22T02:27:08.214Z,17.68
2017-01-22T02:27:36.982Z,17.63
2017-01-22T02:28:04.967Z,17.74
2017-01-22T02:28:35.416Z,17.68
2017-01-22T02:29:03.525Z,17.68
2017-01-22T02:29:31.619Z,17.75
2017-01-22T02:29:59.585Z,17.75
2017-01-22T02:30:27.566Z,17.64
2017-01-22T02:30:55.475Z,17.74
2017-01-22T02:31:24.210Z,17.71
2017-01-22T02:31:52.982Z,17.71
2017-01-22T02:32:22.628Z,17.66
2017-01-22T02:32:51.522Z,17.58
2017-01-22T02:33:19.471Z,17.59
2017-01-22T02:33:47.540Z,17.62
2017-01-22T02:34:15.622Z,17.62
2017-01-22T02:34:43.811Z,17.56
2017-01-22T02:35:13.450Z,17.62
2017-01-22T02:35:41.402Z,17.56
2017-01-22T02:36:11.038Z,17.52
2017-01-22T02:36:39.092Z,17.63
2017-01-22T02:37:08.726Z,17.64
2017-01-22T02:37:37.384Z,17.59
2017-01-22T02:38:06.120Z,17.62
2017-01-22T02:38:34.062Z,17.66
2017-01-22T02:39:02.129Z,17.66
2017-01-22T02:39:31.784Z,17.64
2017-01-22T02:39:59.865Z,17.63
2017-01-22T02:41:06.968Z,17.62
2017-01-22T02:41:35.047Z,17.56
2017-01-22T02:42:03.021Z,17.58
2017-01-22T02:42:31.061Z,17.59
2017-01-22T02:42:59.850Z,17.68
2017-01-22T02:43:27.759Z,17.59
2017-01-22T02:43:55.734Z,17.59
2017-01-22T02:44:23.801Z,17.54
2017-01-22T02:44:51.883Z,17.59
2017-01-22T02:45:19.882Z,17.52
2017-01-22T02:45:48.789Z,17.56
2017-01-22T02:46:17.669Z,17.59
2017-01-22T02:46:45.664Z,17.54
2017-01-22T02:47:13.680Z,17.58
2017-01-22T02:47:42.410Z,17.54
2017-01-22T02:48:10.369Z,17.62
2017-01-22T02:48:39.132Z,17.55
2017-01-22T02:49:07.190Z,17.56
2017-01-22T02:49:35.181Z,17.58
2017-01-22T02:50:03.462Z,17.54
2017-01-22T02:50:31.569Z,17.56
2017-01-22T02:50:59.462Z,17.55
2017-01-22T02:51:27.553Z,17.62
2017-01-22T02:51:55.534Z,17.62
2017-01-22T02:52:24.455Z,17.58
2017-01-22T02:52:52.367Z,17.62
2017-01-22T02:53:20.290Z,17.63
2017-01-22T02:53:48.373Z,17.58
2017-01-22T02:54:17.165Z,17.64
2017-01-22T02:54:45.233Z,17.74
2017-01-22T02:55:14.860Z,17.59
2017-01-22T02:55:42.943Z,17.74
2017-01-22T02:56:10.824Z,17.64
2017-01-22T02:56:41.270Z,17.71
2017-01-22T02:57:10.098Z,17.62
2017-01-22T02:57:38.951Z,17.64
2017-01-22T02:58:06.926Z,17.63
2017-01-22T02:58:35.673Z,17.66
2017-01-22T02:59:03.615Z,17.56
2017-01-22T02:59:31.608Z,17.59
2017-01-22T02:59:59.683Z,17.63
2017-01-22T03:00:27.824Z,17.71
2017-01-22T03:00:56.670Z,17.71
2017-01-22T03:01:24.547Z,17.62
2017-01-22T03:01:52.622Z,17.56
2017-01-22T03:02:20.694Z,17.59
2017-01-22T03:02:48.700Z,17.62
2017-01-22T03:03:16.829Z,17.7
2017-01-22T03:03:45.651Z,17.64
2017-01-22T03:04:14.302Z,17.56
2017-01-22T03:04:42.357Z,17.66
2017-01-22T03:05:12.172Z,17.71
2017-01-22T03:05:40.292Z,17.68
2017-01-22T03:06:08.359Z,17.58
2017-01-22T03:06:36.173Z,17.62
2017-01-22T03:07:04.251Z,17.56
2017-01-22T03:07:33.039Z,17.58
2017-01-22T03:08:03.511Z,17.56
2017-01-22T03:08:31.621Z,17.63
2017-01-22T03:09:01.167Z,17.63
2017-01-22T03:09:29.984Z,17.56
2017-01-22T03:09:57.959Z,17.62
2017-01-22T03:10:27.510Z,17.49
2017-01-22T03:10:56.239Z,17.62
2017-01-22T03:11:25.034Z,17.58
2017-01-22T03:11:53.104Z,17.55
2017-01-22T03:12:22.670Z,17.62
2017-01-22T03:12:51.563Z,17.62
2017-01-22T03:13:19.376Z,17.58
2017-01-22T03:13:47.381Z,17.58
2017-01-22T03:14:15.980Z,17.56
2017-01-22T03:14:44.643Z,17.56
2017-01-22T03:15:13.468Z,17.56
2017-01-22T03:15:41.355Z,17.63
2017-01-22T03:16:10.194Z,17.56
2017-01-22T03:16:38.255Z,17.62
2017-01-22T03:17:06.139Z,17.56
2017-01-22T03:17:34.177Z,17.56
2017-01-22T03:18:03.074Z,17.51
2017-01-22T03:18:31.136Z,17.52
2017-01-22T03:19:00.783Z,17.49
2017-01-22T03:19:29.649Z,17.51
2017-01-22T03:20:36.046Z,17.55
2017-01-22T03:21:03.935Z,17.56
2017-01-22T03:21:32.002Z,17.56
2017-01-22T03:21:59.946Z,17.54
2017-01-22T03:22:27.778Z,17.54
2017-01-22T03:22:57.305Z,17.54
2017-01-22T03:23:25.279Z,17.62
2017-01-22T03:23:53.350Z,17.58
2017-01-22T03:24:21.436Z,17.54
2017-01-22T03:24:49.431Z,17.51
2017-01-22T03:25:17.463Z,17.51
2017-01-22T03:25:45.479Z,17.52
2017-01-22T03:26:14.242Z,17.51
2017-01-22T03:26:43.112Z,17.54
2017-01-22T03:27:11.970Z,17.55
2017-01-22T03:27:40.717Z,17.59
2017-01-22T03:28:09.568Z,17.55
2017-01-22T03:28:37.632Z,17.46
2017-01-22T03:29:05.628Z,17.52
2017-01-22T03:29:33.658Z,17.55
2017-01-22T03:30:01.757Z,17.52
2017-01-22T03:30:29.812Z,17.54
2017-01-22T03:30:58.695Z,17.51
2017-01-22T03:31:28.331Z,17.52
2017-01-22T03:31:56.377Z,17.55
2017-01-22T03:32:24.192Z,17.56
2017-01-22T03:32:53.766Z,17.49
2017-01-22T03:33:21.850Z,17.51
2017-01-22T03:33:50.627Z,17.52
2017-01-22T03:34:18.611Z,17.54
2017-01-22T03:34:47.459Z,17.48
2017-01-22T03:35:15.534Z,17.51
2017-01-22T03:35:43.608Z,17.56
2017-01-22T03:36:12.340Z,17.56
2017-01-22T03:36:40.304Z,17.54
2017-01-22T03:37:08.280Z,17.62
2017-01-22T03:37:36.335Z,17.46
2017-01-22T03:38:04.389Z,17.55
2017-01-22T03:38:32.337Z,17.51
2017-01-22T03:39:00.324Z,17.58
2017-01-22T03:39:28.398Z,17.56
2017-01-22T03:39:58.068Z,17.52
2017-01-22T03:40:26.141Z,17.55
2017-01-22T03:40:54.799Z,17.52
2017-01-22T03:41:22.874Z,17.54
2017-01-22T03:41:51.440Z,17.59
2017-01-22T03:42:19.399Z,17.56
2017-01-22T03:42:48.989Z,17.54
2017-01-22T03:43:17.814Z,17.52
2017-01-22T03:43:47.429Z,17.59
2017-01-22T03:44:15.391Z,17.58
2017-01-22T03:44:43.322Z,17.54
2017-01-22T03:45:11.262Z,17.54
2017-01-22T03:45:40.031Z,17.55
2017-01-22T03:46:08.118Z,17.59
2017-01-22T03:46:36.104Z,17.58
2017-01-22T03:47:04.092Z,17.52
2017-01-22T03:47:32.221Z,17.56
2017-01-22T03:48:00.331Z,17.56
2017-01-22T03:48:29.980Z,17.51
2017-01-22T03:48:57.857Z,17.56
2017-01-22T03:49:25.834Z,17.56
2017-01-22T03:49:53.879Z,17.62
2017-01-22T03:50:21.917Z,17.62
2017-01-22T03:50:50.106Z,17.62
2017-01-22T03:51:18.071Z,17.56
2017-01-22T03:51:47.650Z,17.58
2017-01-22T03:52:15.588Z,17.55
2017-01-22T03:52:44.434Z,17.55
2017-01-22T03:53:13.363Z,17.59
2017-01-22T03:53:42.222Z,17.58
2017-01-22T03:54:11.074Z,17.55
2017-01-22T03:54:39.026Z,17.54
2017-01-22T03:55:06.907Z,17.56
2017-01-22T03:55:34.954Z,17.52
2017-01-22T03:56:03.708Z,17.56
2017-01-22T03:56:32.371Z,17.58
2017-01-22T03:57:01.092Z,17.64
2017-01-22T03:57:29.136Z,17.56
2017-01-22T03:57:57.021Z,17.56
2017-01-22T03:58:24.834Z,17.58
2017-01-22T03:58:54.380Z,17.58
2017-01-22T04:00:01.404Z,17.54
2017-01-22T04:00:31.114Z,17.54
2017-01-22T04:00:59.188Z,17.58
2017-01-22T04:01:26.986Z,17.55
2017-01-22T04:01:54.906Z,17.54
2017-01-22T04:02:22.990Z,17.54
2017-01-22T04:02:50.965Z,17.59
2017-01-22T04:03:18.950Z,17.56
2017-01-22T04:03:47.048Z,17.54
2017-01-22T04:04:15.059Z,17.56
2017-01-22T04:04:43.965Z,17.58
2017-01-22T04:05:12.845Z,17.54
2017-01-22T04:05:40.781Z,17.51
2017-01-22T04:06:08.875Z,17.52
2017-01-22T04:06:37.633Z,17.46
2017-01-22T04:07:06.476Z,17.52
2017-01-22T04:07:35.329Z,17.55
2017-01-22T04:08:03.295Z,17.4
2017-01-22T04:08:32.066Z,17.49
2017-01-22T04:09:00.193Z,17.41
2017-01-22T04:09:28.286Z,17.4
2017-01-22T04:09:56.349Z,17.49
2017-01-22T04:10:24.339Z,17.54
2017-01-22T04:10:52.322Z,17.44
2017-01-22T04:11:20.367Z,17.48
2017-01-22T04:11:48.363Z,17.48
2017-01-22T04:12:16.372Z,17.52
2017-01-22T04:12:44.451Z,17.44
2017-01-22T04:13:12.544Z,17.46
2017-01-22T04:13:40.613Z,17.54
2017-01-22T04:14:08.595Z,17.51
2017-01-22T04:14:36.678Z,17.59
2017-01-22T04:15:05.530Z,17.43
2017-01-22T04:15:34.243Z,17.49
2017-01-22T04:16:02.297Z,17.49
2017-01-22T04:16:32.711Z,17.51
2017-01-22T04:17:01.555Z,17.55
2017-01-22T04:17:29.524Z,17.52
2017-01-22T04:17:58.254Z,17.56
2017-01-22T04:18:26.332Z,17.55
2017-01-22T04:18:56.711Z,17.58
2017-01-22T04:19:25.679Z,17.51
2017-01-22T04:19:54.528Z,17.48
2017-01-22T04:20:23.365Z,17.56
2017-01-22T04:20:52.224Z,17.59
2017-01-22T04:21:20.548Z,17.54
2017-01-22T04:21:48.514Z,17.62
2017-01-22T04:22:16.558Z,17.51
2017-01-22T04:22:44.605Z,17.56
2017-01-22T04:23:13.263Z,17.51
2017-01-22T04:23:42.099Z,17.52
2017-01-22T04:24:11.768Z,17.46
2017-01-22T04:24:39.705Z,17.49
2017-01-22T04:25:07.619Z,17.44
2017-01-22T04:25:35.615Z,17.49
2017-01-22T04:26:05.086Z,17.44
2017-01-22T04:26:33.159Z,17.54
2017-01-22T04:27:02.072Z,17.44
2017-01-22T04:27:30.964Z,17.46
2017-01-22T04:28:00.637Z,17.51
2017-01-22T04:28:28.668Z,17.46
2017-01-22T04:28:56.642Z,17.44
2017-01-22T04:29:24.725Z,17.46
2017-01-22T04:29:52.666Z,17.46
2017-01-22T04:30:21.529Z,17.54
2017-01-22T04:30:50.299Z,17.52
2017-01-22T04:31:19.887Z,17.55
2017-01-22T04:31:48.013Z,17.49
2017-01-22T04:32:15.986Z,17.49
2017-01-22T04:32:43.994Z,17.56
2017-01-22T04:33:12.080Z,17.54
2017-01-22T04:33:40.148Z,17.56
2017-01-22T04:34:08.100Z,17.56
2017-01-22T04:34:36.070Z,17.59
2017-01-22T04:35:04.031Z,17.54
2017-01-22T04:35:32.087Z,17.56
2017-01-22T04:36:00.749Z,17.49
2017-01-22T04:36:29.050Z,17.49
2017-01-22T04:36:57.770Z,17.49
2017-01-22T04:37:26.520Z,17.49
2017-01-22T04:37:54.522Z,17.46
2017-01-22T04:38:22.423Z,17.55
2017-01-22T04:39:29.529Z,17.54
2017-01-22T04:39:58.286Z,17.59
2017-01-22T04:40:27.143Z,17.54
2017-01-22T04:40:55.877Z,17.54
2017-01-22T04:41:25.366Z,17.55
2017-01-22T04:41:55.767Z,17.52
2017-01-22T04:42:23.735Z,17.48
2017-01-22T04:42:51.713Z,17.54
2017-01-22T04:43:19.712Z,17.62
2017-01-22T04:43:47.800Z,17.58
2017-01-22T04:44:16.709Z,17.55
2017-01-22T04:44:44.724Z,17.54
2017-01-22T04:45:12.715Z,17.54
2017-01-22T04:45:41.580Z,17.49
2017-01-22T04:46:10.336Z,17.52
2017-01-22T04:46:38.387Z,17.51
2017-01-22T04:47:06.573Z,17.49
2017-01-22T04:47:34.634Z,17.51
2017-01-22T04:48:02.719Z,17.52
2017-01-22T04:48:30.754Z,17.51
2017-01-22T04:48:58.662Z,17.55
2017-01-22T04:49:27.522Z,17.55
2017-01-22T04:49:55.424Z,17.52
2017-01-22T04:50:24.172Z,17.51
2017-01-22T04:50:52.319Z,17.52
2017-01-22T04:51:21.354Z,17.49
2017-01-22T04:51:51.690Z,17.58
2017-01-22T04:52:19.767Z,17.51
2017-01-22T04:52:49.428Z,17.52
2017-01-22T04:53:18.189Z,17.49
2017-01-22T04:53:47.717Z,17.54
2017-01-22T04:54:15.707Z,17.56
2017-01-22T04:54:44.553Z,17.49
2017-01-22T04:55:15.002Z,17.43
2017-01-22T04:55:42.875Z,17.49
2017-01-22T04:56:11.726Z,17.51
2017-01-22T04:56:40.477Z,17.58
2017-01-22T04:57:08.532Z,17.55
2017-01-22T04:57:36.478Z,17.44
2017-01-22T04:58:05.159Z,17.51
2017-01-22T04:58:33.923Z,17.48
2017-01-22T04:59:01.958Z,17.49
2017-01-22T04:59:30.797Z,17.44
2017-01-22T04:59:59.644Z,17.41
2017-01-22T05:00:27.721Z,17.44
2017-01-22T05:00:57.357Z,17.43
2017-01-22T05:01:25.223Z,17.51
2017-01-22T05:01:55.674Z,17.55
2017-01-22T05:02:23.720Z,17.58
2017-01-22T05:02:52.553Z,17.55
2017-01-22T05:03:21.386Z,17.49
2017-01-22T05:03:49.410Z,17.56
2017-01-22T05:04:17.531Z,17.51
2017-01-22T05:04:45.514Z,17.56
2017-01-22T05:05:13.605Z,17.56
2017-01-22T05:05:41.595Z,17.58
2017-01-22T05:06:09.494Z,17.54
2017-01-22T05:06:37.681Z,17.56
2017-01-22T05:07:06.469Z,17.48
2017-01-22T05:07:35.343Z,17.49
2017-01-22T05:08:04.167Z,17.55
2017-01-22T05:08:32.141Z,17.46
2017-01-22T05:09:00.229Z,17.46
2017-01-22T05:09:29.837Z,17.56
2017-01-22T05:09:57.875Z,17.46
2017-01-22T05:10:25.890Z,17.44
2017-01-22T05:10:54.758Z,17.46
2017-01-22T05:11:22.791Z,17.55
2017-01-22T05:11:50.768Z,17.55
2017-01-22T05:12:18.856Z,17.52
2017-01-22T05:12:46.759Z,17.41
2017-01-22T05:13:15.513Z,17.43
2017-01-22T05:13:43.467Z,17.46
2017-01-22T05:14:11.543Z,17.49
2017-01-22T05:14:40.383Z,17.49
2017-01-22T05:15:08.345Z,17.49
2017-01-22T05:15:36.415Z,17.55
2017-01-22T05:16:05.142Z,17.51
2017-01-22T05:16:34.037Z,17.56
2017-01-22T05:17:02.792Z,17.58
2017-01-22T05:17:30.784Z,17.55
2017-01-22T05:17:58.867Z,17.52
2017-01-22T05:19:07.548Z,17.46
2017-01-22T05:19:36.401Z,17.62
2017-01-22T05:20:05.260Z,17.54
2017-01-22T05:20:33.886Z,17.54
2017-01-22T05:21:02.682Z,17.55
2017-01-22T05:21:31.687Z,17.56
2017-01-22T05:21:59.661Z,17.55
2017-01-22T05:22:27.641Z,17.58
2017-01-22T05:22:55.647Z,17.56
2017-01-22T05:23:23.738Z,17.55
2017-01-22T05:23:51.866Z,17.52
2017-01-22T05:24:19.886Z,17.52
2017-01-22T05:24:47.788Z,17.59
2017-01-22T05:25:17.438Z,17.56
2017-01-22T05:25:45.400Z,17.56
2017-01-22T05:26:13.367Z,17.52
2017-01-22T05:26:41.355Z,17.51
2017-01-22T05:27:10.017Z,17.52
2017-01-22T05:27:38.880Z,17.55
2017-01-22T05:28:07.782Z,17.55
2017-01-22T05:28:36.567Z,17.54
2017-01-22T05:29:04.630Z,17.43
2017-01-22T05:29:32.622Z,17.46
2017-01-22T05:30:00.689Z,17.51
2017-01-22T05:30:29.513Z,17.49
2017-01-22T05:30:57.512Z,17.49
2017-01-22T05:31:25.517Z,17.51
2017-01-22T05:31:53.508Z,17.52
2017-01-22T05:32:21.597Z,17.62
2017-01-22T05:32:50.261Z,17.54
2017-01-22T05:33:19.022Z,17.63
2017-01-22T05:33:47.877Z,17.63
2017-01-22T05:34:17.416Z,17.62
2017-01-22T05:34:46.130Z,17.59
2017-01-22T05:35:14.084Z,17.58
2017-01-22T05:35:42.776Z,17.56
2017-01-22T05:36:12.397Z,17.51
2017-01-22T05:36:40.604Z,17.58
2017-01-22T05:37:09.424Z,17.48
2017-01-22T05:37:37.409Z,17.46
2017-01-22T05:38:05.308Z,17.59
2017-01-22T05:38:33.160Z,17.52
2017-01-22T05:39:01.231Z,17.49
2017-01-22T05:39:29.886Z,17.52
2017-01-22T05:39:57.961Z,17.43
2017-01-22T05:40:26.800Z,17.49
2017-01-22T05:40:55.351Z,17.52
2017-01-22T05:41:24.274Z,17.38
2017-01-22T05:41:52.464Z,17.4
2017-01-22T05:42:20.429Z,17.49
2017-01-22T05:42:48.377Z,17.51
2017-01-22T05:43:18.399Z,17.46
2017-01-22T05:43:46.427Z,17.49
2017-01-22T05:44:16.053Z,17.56
2017-01-22T05:44:44.043Z,17.49
2017-01-22T05:45:12.903Z,17.51
2017-01-22T05:45:41.669Z,17.49
2017-01-22T05:46:10.560Z,17.52
2017-01-22T05:46:38.668Z,17.48
2017-01-22T05:47:06.586Z,17.52
2017-01-22T05:47:35.335Z,17.52
2017-01-22T05:48:03.395Z,17.43
2017-01-22T05:48:31.481Z,17.51
2017-01-22T05:49:00.214Z,17.52
2017-01-22T05:49:28.907Z,17.46
2017-01-22T05:49:57.773Z,17.44
2017-01-22T05:50:26.578Z,17.48
2017-01-22T05:50:55.475Z,17.52
2017-01-22T05:51:23.450Z,17.44
2017-01-22T05:51:51.610Z,17.58
2017-01-22T05:52:19.423Z,17.56
2017-01-22T05:52:48.183Z,17.58
2017-01-22T05:53:16.131Z,17.55
2017-01-22T05:53:44.799Z,17.51
2017-01-22T05:54:13.629Z,17.48
2017-01-22T05:54:41.602Z,17.55
2017-01-22T05:55:10.443Z,17.62
2017-01-22T05:55:38.388Z,17.58
2017-01-22T05:56:07.287Z,17.62
2017-01-22T05:56:36.138Z,17.55
2017-01-22T05:57:04.918Z,17.54
2017-01-22T05:57:32.735Z,17.63
2017-01-22T05:58:39.842Z,17.52
2017-01-22T05:59:08.610Z,17.59
2017-01-22T05:59:36.594Z,17.56
2017-01-22T06:00:05.418Z,17.55
2017-01-22T06:00:34.210Z,17.51
2017-01-22T06:01:02.287Z,17.56
2017-01-22T06:01:30.258Z,17.56
2017-01-22T06:01:58.323Z,17.51
2017-01-22T06:02:26.409Z,17.46
2017-01-22T06:02:55.281Z,17.56
2017-01-22T06:03:23.319Z,17.56
2017-01-22T06:03:51.422Z,17.51
2017-01-22T06:04:19.414Z,17.56
2017-01-22T06:04:47.320Z,17.55
2017-01-22T06:05:16.079Z,17.62
2017-01-22T06:05:45.697Z,17.62
2017-01-22T06:06:14.563Z,17.59
2017-01-22T06:06:44.887Z,17.56
2017-01-22T06:07:13.027Z,17.64
2017-01-22T06:07:41.937Z,17.63
2017-01-22T06:08:09.857Z,17.63
2017-01-22T06:08:37.831Z,17.56
2017-01-22T06:09:05.915Z,17.58
2017-01-22T06:09:33.709Z,17.56
2017-01-22T06:10:02.630Z,17.54
2017-01-22T06:10:31.420Z,17.54
2017-01-22T06:10:59.425Z,17.58
2017-01-22T06:11:27.509Z,17.58
2017-01-22T06:11:55.599Z,17.56
2017-01-22T06:12:25.235Z,17.64
2017-01-22T06:12:53.126Z,17.62
2017-01-22T06:13:20.937Z,17.64